Greendale, Wisconsin
Current Conditions -  °F | °C
As of 11:52 PM on Sunday 23 Nov 2014 (Local Time) from KMKE Reporting Station
Light Rain Light Rain  
Wind Chill: 46°   Ceiling: 200
Heat Index: 46°   Visibility: 0.25mi
Dew Point: 44°   Wind: 3mph
Humidity: 93%   Direction: 340°NNW
Pressure: 29.08"   Gusts: NA
Location:  42.94°N, 87.99°W
Report Text: KMKE 240552Z 34003KT 1/4SM -RA BR OVC002 08/07 A2908 RMK AO2 SFC VIS 1 1/2 SLP850 P0003 60047 T00780067 10089 20078 401000078 56033
Loading
Personal Weather Stations






























Interactive Weather Map New forecast layout! Learn more

10-Day Weather Forecast

Advertisements
Track Severe Weather on mobile